Time;durP1;ratioP1;P1;durP2;ratioP2;P2;SDS_P1;SDS_P2;PMS_P1;PMS_P2;Temp;Humidity;BMP_temperature;BMP_pressure;BME280_temperature;BME280_humidity;BME280_pressure;Samples;Min_cycle;Max_cycle;Signal;HPM_P1;HPM_P2
2022/09/15 00:01:10;;;;;;;3.70;2.20;;;;;;;18.33;65.32;100215.52;1699692;82;25880;-72
2022/09/15 00:03:40;;;;;;;4.35;2.22;;;;;;;18.36;65.51;100206.42;1743441;80;26957;-72
2022/09/15 00:06:08;;;;;;;8.88;2.50;;;;;;;18.36;65.21;100200.98;1747585;81;25521;-72
2022/09/15 00:08:36;;;;;;;4.55;2.15;;;;;;;18.38;65.18;100189.37;1745674;81;25745;-71
2022/09/15 00:11:08;;;;;;;4.78;2.27;;;;;;;18.43;65.17;100192.84;1697297;84;25818;-72
2022/09/15 00:13:38;;;;;;;6.40;2.15;;;;;;;18.45;65.15;100187.52;1695315;83;25733;-72
2022/09/15 00:16:07;;;;;;;5.05;2.05;;;;;;;18.50;65.12;100177.91;1697005;83;27476;-72
2022/09/15 00:18:35;;;;;;;3.62;1.80;;;;;;;18.50;65.12;100179.27;1703731;83;25728;-72
2022/09/15 00:21:09;;;;;;;6.35;2.42;;;;;;;18.51;64.95;100165.97;1753055;81;25556;-72
2022/09/15 00:23:37;;;;;;;7.75;2.55;;;;;;;18.51;64.91;100174.14;1740742;81;26686;-72
2022/09/15 00:26:11;;;;;;;6.97;2.08;;;;;;;18.42;64.88;100159.84;1756143;81;25711;-72
2022/09/15 00:28:38;;;;;;;9.35;2.30;;;;;;;18.35;65.20;100155.72;1756029;81;27454;-72
2022/09/15 00:31:10;;;;;;;8.23;2.33;;;;;;;18.28;65.37;100162.52;1723689;81;25494;-71
2022/09/15 00:33:37;;;;;;;2.92;1.80;;;;;;;18.24;65.62;100169.41;1712391;82;26259;-72
2022/09/15 00:36:10;;;;;;;5.47;2.22;;;;;;;18.18;66.57;100177.52;1705032;83;26887;-71
2022/09/15 00:38:38;;;;;;;8.58;2.35;;;;;;;18.10;66.39;100179.37;1705078;83;25795;-72
2022/09/15 00:41:08;;;;;;;3.80;1.92;;;;;;;18.07;66.18;100187.10;1678513;84;27504;-72
2022/09/15 00:43:52;;;;;;;7.55;1.82;;;;;;;18.01;66.59;100186.55;1713759;81;25839;-72
2022/09/15 00:46:33;;;;;;;6.10;2.22;;;;;;;17.96;66.62;100181.17;1705001;83;25461;-73
2022/09/15 00:49:14;;;;;;;9.35;1.75;;;;;;;17.91;67.11;100182.27;1704991;83;26705;-72
2022/09/15 00:51:46;;;;;;;3.40;2.05;;;;;;;17.91;67.22;100176.83;1704961;83;27394;-73
2022/09/15 00:54:17;;;;;;;6.10;2.08;;;;;;;17.86;66.91;100170.30;1712116;81;27547;-72
2022/09/15 00:56:48;;;;;;;4.17;2.17;;;;;;;17.84;67.66;100159.09;1711131;82;26005;-72
2022/09/15 00:59:19;;;;;;;10.78;1.90;;;;;;;17.73;67.72;100158.27;1682029;85;25607;-73
2022/09/15 01:01:52;;;;;;;10.75;2.00;;;;;;;17.70;67.83;100152.39;1681877;85;25813;-72
2022/09/15 01:04:19;;;;;;;6.17;2.40;;;;;;;17.70;67.94;100143.73;1684351;82;25852;-72
2022/09/15 01:06:54;;;;;;;10.40;2.58;;;;;;;17.71;67.77;100135.86;1718810;82;27484;-72
2022/09/15 01:09:29;;;;;;;3.27;1.70;;;;;;;17.71;67.95;100141.30;1676266;84;25737;-72
2022/09/15 01:11:57;;;;;;;4.25;1.95;;;;;;;17.66;67.68;100135.63;1735225;81;25786;-71
2022/09/15 01:14:24;;;;;;;3.90;1.80;;;;;;;17.63;67.83;100126.50;1738620;81;26136;-72
2022/09/15 01:17:08;;;;;;;5.97;2.33;;;;;;;17.59;67.58;100140.19;1738384;82;25866;-72
2022/09/15 01:19:54;;;;;;;;;;;;;;;17.56;67.75;100139.21;1598285;88;27513;-72
2022/09/15 01:22:50;;;;;;;6.85;2.20;;;;;;;17.50;67.95;100138.13;1707192;82;26500;-72
2022/09/15 01:25:42;;;;;;;7.65;2.10;;;;;;;17.46;68.01;100141.76;1682923;82;25820;-72
2022/09/15 01:28:46;;;;;;;5.12;1.92;;;;;;;17.43;68.14;100129.94;1738491;82;26309;-72
2022/09/15 01:31:28;;;;;;;4.17;1.92;;;;;;;17.41;68.37;100117.55;1680183;85;25828;-71
2022/09/15 01:34:15;;;;;;;4.28;2.35;;;;;;;17.40;68.42;100100.41;1651598;86;27472;-71
2022/09/15 01:37:02;;;;;;;4.53;2.08;;;;;;;17.42;68.34;100084.75;1678426;84;25798;-73
2022/09/15 01:39:34;;;;;;;6.55;2.30;;;;;;;17.43;68.57;100085.58;1695681;82;25775;-71
2022/09/15 01:42:06;;;;;;;2.80;2.12;;;;;;;17.41;68.92;100077.63;1708579;84;25919;-73
2022/09/15 01:44:50;;;;;;;7.55;2.50;;;;;;;17.43;69.13;100082.36;1708700;84;25967;-72
2022/09/15 01:47:20;;;;;;;4.45;2.15;;;;;;;17.43;68.98;100081.00;1708606;84;27707;-72
2022/09/15 01:49:54;;;;;;;4.50;2.30;;;;;;;17.43;68.93;100082.86;1720720;82;25719;-73
2022/09/15 01:52:23;;;;;;;9.05;2.42;;;;;;;17.45;68.81;100096.56;1731693;82;25700;-72
2022/09/15 01:54:57;;;;;;;6.62;2.30;;;;;;;17.46;68.88;100091.45;1731526;82;25807;-72
2022/09/15 01:57:25;;;;;;;7.85;2.30;;;;;;;17.43;68.98;100081.50;1733929;82;25636;-72
2022/09/15 01:59:55;;;;;;;9.25;2.40;;;;;;;17.43;68.85;100083.72;1707530;83;28164;-72
2022/09/15 02:02:33;;;;;;;5.90;2.40;;;;;;;17.44;69.08;100089.45;1735090;82;25744;-72
2022/09/15 02:05:19;;;;;;;6.80;2.20;;;;;;;17.44;69.72;100092.70;1731012;82;25772;-72
2022/09/15 02:08:03;;;;;;;7.22;2.33;;;;;;;17.41;69.42;100099.88;1715979;82;25849;-72
2022/09/15 02:10:43;;;;;;;9.83;1.95;;;;;;;17.35;69.70;100079.76;1730729;82;25644;-72
2022/09/15 02:13:18;;;;;;;9.18;3.27;;;;;;;17.31;69.88;100075.77;1731424;82;27438;-71
2022/09/15 02:15:50;;;;;;;7.90;3.02;;;;;;;17.25;69.86;100064.34;1730441;82;25745;-72
2022/09/15 02:18:37;;;;;;;7.62;2.58;;;;;;;17.24;69.84;100060.77;1731278;82;25814;-72
2022/09/15 02:21:09;;;;;;;3.12;1.95;;;;;;;17.22;69.77;100050.59;1730956;82;25781;-72
2022/09/15 02:23:40;;;;;;;6.83;2.33;;;;;;;17.23;69.82;100055.53;1729018;82;25843;-72
2022/09/15 02:26:15;;;;;;;5.03;2.50;;;;;;;17.23;70.02;100057.72;1713532;82;27475;-73
2022/09/15 02:28:45;;;;;;;18.10;2.55;;;;;;;17.18;70.09;100054.23;1713927;82;25777;-72
2022/09/15 02:31:16;;;;;;;10.48;2.75;;;;;;;17.14;70.03;100069.77;1683290;84;25817;-72
2022/09/15 02:34:04;;;;;;;6.25;2.45;;;;;;;17.10;70.12;100067.14;1711112;82;25761;-72
2022/09/15 02:36:32;;;;;;;6.17;2.45;;;;;;;17.05;71.02;100058.22;1731158;82;26464;-71
2022/09/15 02:39:07;;;;;;;4.42;2.25;;;;;;;16.92;70.48;100063.49;1730335;82;28260;-73
2022/09/15 02:41:36;;;;;;;10.95;2.20;;;;;;;16.91;70.68;100072.17;1720114;82;26022;-71
2022/09/15 02:44:03;;;;;;;8.73;2.37;;;;;;;16.90;70.81;100065.05;1731405;82;25713;-72
2022/09/15 02:46:30;;;;;;;10.25;2.70;;;;;;;16.87;70.75;100054.07;1731055;82;25949;-72
2022/09/15 02:48:56;;;;;;;6.40;2.17;;;;;;;16.87;70.80;100047.28;1733810;82;25542;-72
2022/09/15 02:51:23;;;;;;;5.75;3.17;;;;;;;16.87;70.80;100049.14;1740991;82;28158;-71
2022/09/15 02:53:50;;;;;;;3.98;1.95;;;;;;;16.88;70.82;100033.17;1713169;83;25682;-72
2022/09/15 02:56:17;;;;;;;2.55;2.15;;;;;;;16.89;70.92;100034.84;1743988;81;25710;-73
2022/09/15 02:58:43;;;;;;;6.92;2.20;;;;;;;16.87;70.97;100028.77;1745128;80;25771;-72
2022/09/15 03:01:16;;;;;;;13.00;2.62;;;;;;;16.87;71.08;100033.70;1756177;81;25706;-72
2022/09/15 03:03:45;;;;;;;11.50;2.27;;;;;;;16.85;71.04;100022.18;1743709;82;27118;-72
2022/09/15 03:06:17;;;;;;;4.05;2.02;;;;;;;16.83;71.03;100020.17;1756455;81;25805;-72
2022/09/15 03:08:51;;;;;;;14.67;2.60;;;;;;;16.80;70.93;100024.66;1751643;81;26276;-72
2022/09/15 03:11:22;;;;;;;8.18;2.58;;;;;;;16.80;71.03;100023.80;1726607;83;25788;-70
2022/09/15 03:13:55;;;;;;;13.95;2.00;;;;;;;16.78;70.86;100025.86;1726089;81;25809;-73
2022/09/15 03:16:23;;;;;;;5.25;1.95;;;;;;;16.76;70.95;100024.71;1701710;83;27441;-73
2022/09/15 03:18:51;;;;;;;7.92;2.70;;;;;;;16.68;71.04;100017.53;1730930;81;25868;-73
2022/09/15 03:21:19;;;;;;;4.92;2.70;;;;;;;16.64;71.01;100027.12;1756277;81;25690;-73
2022/09/15 03:23:45;;;;;;;12.03;2.90;;;;;;;16.62;71.36;100033.78;1756498;81;25683;-73
2022/09/15 03:26:13;;;;;;;2.15;1.57;;;;;;;16.59;71.50;100024.13;1756235;81;25776;-72
2022/09/15 03:28:41;;;;;;;4.42;2.75;;;;;;;16.52;71.64;100024.08;1739641;81;27513;-73
2022/09/15 03:31:09;;;;;;;12.00;6.45;;;;;;;16.48;71.53;100020.06;1713280;82;26087;-72
2022/09/15 03:33:36;;;;;;;6.47;2.52;;;;;;;16.48;71.77;100020.06;1713058;83;25704;-74
2022/09/15 03:36:05;;;;;;;11.30;2.40;;;;;;;16.48;72.16;100026.02;1689423;84;25946;-73
2022/09/15 03:38:33;;;;;;;9.30;2.40;;;;;;;16.48;71.88;100015.16;1699005;83;26005;-72
2022/09/15 03:41:06;;;;;;;4.35;2.15;;;;;;;16.49;71.86;100012.24;1684516;84;27489;-72
2022/09/15 03:43:35;;;;;;;3.58;2.05;;;;;;;16.51;71.89;100006.11;1700469;82;25736;-72
2022/09/15 03:46:05;;;;;;;6.85;1.82;;;;;;;16.53;71.87;99994.55;1726117;81;25871;-72
2022/09/15 03:48:34;;;;;;;5.10;2.22;;;;;;;16.56;71.84;99995.49;1726563;81;25734;-73
2022/09/15 03:51:04;;;;;;;12.20;1.98;;;;;;;16.58;71.83;100006.18;1726048;83;25762;-73
2022/09/15 03:53:36;;;;;;;8.60;2.42;;;;;;;16.57;71.94;100015.36;1725519;83;27296;-73
2022/09/15 03:56:10;;;;;;;9.25;2.15;;;;;;;16.56;71.94;100015.86;1726186;83;25499;-73
2022/09/15 03:58:37;;;;;;;25.62;2.65;;;;;;;16.56;71.77;100015.03;1726337;81;25773;-73
2022/09/15 04:01:05;;;;;;;4.28;2.17;;;;;;;16.49;71.60;100018.20;1726024;81;25762;-73
2022/09/15 04:03:32;;;;;;;10.03;2.90;;;;;;;16.46;71.87;100020.77;1732358;81;25787;-72
2022/09/15 04:05:58;;;;;;;4.05;1.85;;;;;;;16.40;71.89;100025.62;1756117;80;28296;-72
2022/09/15 04:08:25;;;;;;;3.52;1.80;;;;;;;16.39;72.16;100027.50;1753722;80;25695;-72
2022/09/15 04:10:53;;;;;;;6.95;1.92;;;;;;;16.38;72.48;100016.32;1752744;81;25666;-73
2022/09/15 04:13:21;;;;;;;5.83;2.02;;;;;;;16.39;72.44;100021.22;1748772;81;26972;-73
2022/09/15 04:15:59;;;;;;;7.33;2.55;;;;;;;16.41;72.41;100013.73;1722787;83;25750;-73
2022/09/15 04:18:29;;;;;;;13.13;2.02;;;;;;;16.42;72.42;100021.67;1696861;84;27477;-72
2022/09/15 04:21:05;;;;;;;11.38;2.52;;;;;;;16.46;72.60;100026.19;1697055;84;25770;-73
2022/09/15 04:23:33;;;;;;;7.30;2.70;;;;;;;16.51;72.52;100012.89;1701184;82;25808;-72
2022/09/15 04:26:04;;;;;;;12.75;2.40;;;;;;;16.54;72.51;100015.73;1752536;81;25765;-71
2022/09/15 04:28:37;;;;;;;20.60;4.33;;;;;;;16.57;72.54;100010.75;1752664;81;25788;-72
2022/09/15 04:31:07;;;;;;;18.23;3.30;;;;;;;16.60;72.63;100009.52;1709140;81;28280;-72
2022/09/15 04:33:35;;;;;;;15.80;2.95;;;;;;;16.63;72.71;100015.93;1696925;83;26514;-72
2022/09/15 04:36:15;;;;;;;24.75;2.80;;;;;;;16.66;72.67;100011.97;1697165;84;25645;-72
2022/09/15 04:38:41;;;;;;;13.62;2.27;;;;;;;16.71;72.66;100010.36;1696858;83;25991;-73
2022/09/15 04:41:09;;;;;;;7.20;2.35;;;;;;;16.78;72.77;100011.78;1692748;83;25873;-75
2022/09/15 04:43:37;;;;;;;11.65;2.12;;;;;;;16.79;72.41;100008.03;1686648;83;27324;-73
2022/09/15 04:46:04;;;;;;;20.15;2.67;;;;;;;16.85;72.48;100010.48;1739276;82;25924;-74
2022/09/15 04:48:31;;;;;;;7.75;1.82;;;;;;;16.90;72.45;100000.69;1739742;82;25667;-73
2022/09/15 04:51:05;;;;;;;11.05;2.33;;;;;;;16.98;72.50;100005.17;1739727;82;26531;-73
2022/09/15 04:53:32;;;;;;;19.92;2.80;;;;;;;17.04;72.50;99998.12;1713459;82;26481;-74
2022/09/15 04:56:12;;;;;;;5.83;2.10;;;;;;;17.05;72.71;99992.48;1738546;82;28363;-72
2022/09/15 04:58:47;;;;;;;9.23;2.40;;;;;;;17.10;72.51;99988.34;1738564;82;25887;-71
2022/09/15 05:01:20;;;;;;;6.00;2.60;;;;;;;17.12;72.49;99992.53;1731225;82;25784;-72
2022/09/15 05:03:48;;;;;;;19.02;2.92;;;;;;;17.17;72.27;99994.66;1728155;81;25831;-73
2022/09/15 05:06:19;;;;;;;6.47;2.47;;;;;;;17.19;72.32;99997.48;1743549;81;25886;-73
2022/09/15 05:08:53;;;;;;;14.25;2.45;;;;;;;17.21;72.31;99999.49;1692191;83;27201;-72
2022/09/15 05:11:21;;;;;;;16.30;3.30;;;;;;;17.21;72.27;99999.49;1689989;84;25801;-70
2022/09/15 05:13:48;;;;;;;16.52;3.58;;;;;;;17.27;72.35;99988.34;1691233;83;25841;-73
2022/09/15 05:16:20;;;;;;;24.92;5.58;;;;;;;17.34;72.30;99987.86;1692368;84;25844;-73
2022/09/15 05:18:49;;;;;;;21.40;4.42;;;;;;;17.41;72.16;99980.25;1690580;83;26561;-74
2022/09/15 05:21:19;;;;;;;20.92;3.42;;;;;;;17.49;71.99;99976.87;1679336;83;27482;-73
2022/09/15 05:23:47;;;;;;;5.72;3.08;;;;;;;17.58;71.67;99976.16;1681121;83;25799;-74
2022/09/15 05:26:18;;;;;;;15.13;3.65;;;;;;;17.68;71.40;99964.92;1693595;83;25777;-73
2022/09/15 05:28:46;;;;;;;36.50;4.28;;;;;;;17.78;71.19;99964.53;1682391;83;25859;-71
2022/09/15 05:31:26;;;;;;;29.57;4.55;;;;;;;17.90;71.13;99949.31;1693360;84;25606;-74
2022/09/15 05:33:54;;;;;;;29.25;3.77;;;;;;;18.02;70.74;99946.86;1690920;83;27618;-73
2022/09/15 05:36:24;;;;;;;43.58;4.25;;;;;;;18.11;70.68;99953.78;1678832;84;25796;-74
2022/09/15 05:38:54;;;;;;;16.07;3.10;;;;;;;18.26;70.56;99948.67;1678785;84;25491;-73
2022/09/15 05:41:22;;;;;;;21.75;3.15;;;;;;;18.44;70.17;99956.25;1693255;84;25788;-74
2022/09/15 05:43:50;;;;;;;23.80;4.05;;;;;;;18.61;69.70;99960.23;1688101;83;25891;-73
2022/09/15 05:46:19;;;;;;;40.00;4.33;;;;;;;18.78;69.29;99955.73;1667141;83;28328;-74
2022/09/15 05:48:46;;;;;;;22.65;3.65;;;;;;;18.89;68.87;99956.97;1689425;84;25756;-74
2022/09/15 05:51:14;;;;;;;34.43;3.60;;;;;;;18.93;68.34;99946.83;1679911;83;25750;-74
2022/09/15 05:53:41;;;;;;;20.27;4.08;;;;;;;19.05;68.14;99939.37;1688647;83;26822;-74
2022/09/15 05:56:11;;;;;;;25.35;4.40;;;;;;;19.15;67.53;99928.88;1693331;84;25759;-74
2022/09/15 05:58:40;;;;;;;31.07;3.67;;;;;;;19.22;67.34;99922.88;1689345;83;27529;-72
2022/09/15 06:01:21;;;;;;;35.75;4.00;;;;;;;19.36;67.25;99920.12;1693111;84;25818;-74
2022/09/15 06:03:48;;;;;;;29.75;3.98;;;;;;;19.51;67.10;99930.73;1687864;83;25844;-74
2022/09/15 06:06:16;;;;;;;24.18;3.42;;;;;;;19.66;66.49;99927.23;1681429;83;25805;-72
2022/09/15 06:08:48;;;;;;;17.07;3.58;;;;;;;19.77;65.93;99923.48;1686005;83;27045;-73
2022/09/15 06:11:18;;;;;;;28.40;2.75;;;;;;;19.89;65.92;99915.50;1717956;81;26790;-74
2022/09/15 06:13:47;;;;;;;25.15;2.83;;;;;;;20.01;65.56;99915.95;1709770;83;25823;-74
2022/09/15 06:16:18;;;;;;;21.62;3.42;;;;;;;20.10;65.11;99909.67;1710483;82;25799;-74
2022/09/15 06:18:46;;;;;;;16.60;2.50;;;;;;;20.16;64.76;99898.41;1730468;82;25955;-74
2022/09/15 06:21:23;;;;;;;15.28;2.35;;;;;;;20.24;64.52;99894.58;1740063;82;25694;-74
2022/09/15 06:23:56;;;;;;;20.05;3.55;;;;;;;20.36;63.53;99896.06;1715439;82;28334;-74
2022/09/15 06:26:24;;;;;;;11.20;2.58;;;;;;;20.41;63.46;99889.39;1740320;82;25795;-74
2022/09/15 06:28:55;;;;;;;27.98;13.05;;;;;;;20.52;63.13;99891.41;1738279;82;25659;-72
2022/09/15 06:31:24;;;;;;;33.13;4.53;;;;;;;20.60;63.04;99889.75;1728036;81;25729;-75
2022/09/15 06:33:56;;;;;;;16.23;2.65;;;;;;;20.70;62.81;99895.23;1717486;81;25695;-73
2022/09/15 06:36:27;;;;;;;11.40;3.10;;;;;;;20.78;62.75;99899.93;1717510;83;28382;-73
2022/09/15 06:38:55;;;;;;;17.67;3.62;;;;;;;20.87;62.46;99899.09;1717567;81;25868;-74
2022/09/15 06:41:22;;;;;;;13.00;2.62;;;;;;;20.93;62.30;99903.64;1717969;81;25705;-74
2022/09/15 06:43:49;;;;;;;27.82;3.30;;;;;;;21.02;62.11;99905.56;1717033;83;26478;-74
2022/09/15 06:46:20;;;;;;;10.72;2.70;;;;;;;21.07;61.98;99907.08;1717133;82;25692;-74
2022/09/15 06:48:50;;;;;;;16.35;3.50;;;;;;;21.14;61.89;99908.92;1716895;83;28564;-74
2022/09/15 06:51:21;;;;;;;16.45;3.60;;;;;;;21.22;62.06;99913.55;1717978;81;26588;-73
2022/09/15 06:53:49;;;;;;;19.60;4.25;;;;;;;21.27;61.54;99903.28;1717165;81;25767;-74
2022/09/15 06:56:20;;;;;;;31.05;4.87;;;;;;;21.34;61.36;99899.11;1718389;81;25895;-74
2022/09/15 06:58:50;;;;;;;41.30;6.47;;;;;;;21.39;61.56;99892.41;1717177;83;25502;-74
2022/09/15 07:01:27;;;;;;;28.52;5.67;;;;;;;21.39;60.91;99895.14;1716923;83;33225;-74
2022/09/15 07:03:57;;;;;;;13.30;3.98;;;;;;;21.39;61.47;99891.05;1718202;81;25698;-74
2022/09/15 07:06:29;;;;;;;19.67;4.83;;;;;;;21.42;61.57;99888.71;1722167;82;25731;-75
2022/09/15 07:08:57;;;;;;;21.23;4.28;;;;;;;21.41;61.19;99887.03;1733004;82;25493;-72
2022/09/15 07:11:25;;;;;;;37.75;4.75;;;;;;;21.42;61.41;99886.49;1689512;83;25736;-74
2022/09/15 07:13:52;;;;;;;34.95;5.05;;;;;;;21.46;61.54;99892.33;1652492;85;26902;-74
2022/09/15 07:16:21;;;;;;;20.27;4.33;;;;;;;21.47;61.47;99894.01;1680202;83;25756;-74
2022/09/15 07:18:48;;;;;;;33.15;5.45;;;;;;;21.48;61.15;99883.38;1681633;83;25839;-74
2022/09/15 07:21:19;;;;;;;32.42;4.80;;;;;;;21.49;61.21;99887.78;1675839;84;26324;-74
2022/09/15 07:23:47;;;;;;;29.82;5.65;;;;;;;21.44;61.29;99895.31;1637155;85;25698;-73
2022/09/15 07:26:25;;;;;;;28.17;5.78;;;;;;;21.39;61.26;99893.78;1676717;84;27563;-74
2022/09/15 07:29:03;;;;;;;29.75;6.20;;;;;;;21.33;61.42;99890.59;1687211;83;25885;-74
2022/09/15 07:31:33;;;;;;;29.15;6.78;;;;;;;21.28;61.75;99894.56;1689397;84;25707;-73
2022/09/15 07:34:01;;;;;;;33.15;6.90;;;;;;;21.22;61.99;99905.34;1682027;83;25881;-74
2022/09/15 07:36:29;;;;;;;22.27;4.97;;;;;;;21.15;62.13;99913.33;1663668;84;25802;-71
2022/09/15 07:38:56;;;;;;;18.80;4.50;;;;;;;21.12;62.95;99911.87;1671284;84;27392;-71
2022/09/15 07:41:27;;;;;;;18.02;5.30;;;;;;;21.05;63.50;99911.11;1673772;84;25903;-73
2022/09/15 07:43:57;;;;;;;17.05;5.30;;;;;;;20.96;65.20;99911.95;1685953;83;26714;-71
2022/09/15 07:46:28;;;;;;;26.62;4.35;;;;;;;20.84;65.28;99911.86;1687712;83;25861;-72
2022/09/15 07:48:55;;;;;;;17.92;3.58;;;;;;;20.76;65.74;99903.41;1689180;84;25805;-73
2022/09/15 07:51:23;;;;;;;28.02;4.00;;;;;;;20.75;66.29;99918.67;1694665;84;27516;-71
2022/09/15 07:53:51;;;;;;;22.75;3.92;;;;;;;20.73;66.67;99916.66;1649125;85;25891;-73
2022/09/15 07:56:19;;;;;;;18.32;4.20;;;;;;;20.71;67.03;99915.50;1669187;84;26363;-73
2022/09/15 07:58:48;;;;;;;23.42;4.37;;;;;;;20.74;67.27;99911.53;1671536;83;26103;-73
2022/09/15 08:01:17;;;;;;;25.60;4.40;;;;;;;20.74;67.56;99912.91;1685076;83;25957;-72
2022/09/15 08:03:48;;;;;;;28.73;5.03;;;;;;;20.79;67.93;99919.88;1655005;84;28323;-72
2022/09/15 08:06:20;;;;;;;27.82;3.90;;;;;;;20.87;68.43;99905.92;1661080;84;27308;-71
2022/09/15 08:08:47;;;;;;;19.17;4.50;;;;;;;20.95;68.70;99908.36;1691644;83;25792;-73
2022/09/15 08:11:18;;;;;;;24.45;4.92;;;;;;;21.00;68.80;99909.05;1720269;82;25810;-73
2022/09/15 08:13:49;;;;;;;26.20;5.05;;;;;;;21.06;68.95;99919.62;1707951;82;25738;-71
2022/09/15 08:16:23;;;;;;;25.30;4.50;;;;;;;21.15;69.12;99927.83;1700895;84;28211;-73
2022/09/15 08:18:51;;;;;;;;;;;;;;;21.21;70.17;99927.45;1704682;84;25527;-72
2022/09/15 08:21:19;;;;;;;28.35;3.62;;;;;;;21.16;68.88;99923.22;1727992;82;25798;-73
2022/09/15 08:23:54;;;;;;;20.70;5.20;;;;;;;21.17;69.40;99924.86;1731177;82;25907;-73
2022/09/15 08:26:23;;;;;;;24.55;5.03;;;;;;;21.18;70.23;99918.33;1730494;82;25745;-72
2022/09/15 08:28:50;;;;;;;18.50;5.62;;;;;;;21.17;69.88;99916.14;1731211;82;28222;-71
2022/09/15 08:31:17;;;;;;;17.23;5.53;;;;;;;21.19;69.55;99928.21;1730423;81;25786;-71
2022/09/15 08:33:50;;;;;;;25.72;5.05;;;;;;;21.25;69.83;99921.30;1734971;82;25795;-73
2022/09/15 08:36:17;;;;;;;20.45;4.50;;;;;;;21.32;69.59;99912.17;1729667;82;26434;-73
2022/09/15 08:38:46;;;;;;;21.40;4.60;;;;;;;21.40;70.05;99901.78;1721206;82;25725;-72
2022/09/15 08:41:18;;;;;;;21.45;5.50;;;;;;;21.41;69.94;99900.72;1700439;83;27441;-72
2022/09/15 08:44:31;;;;;;;21.17;5.42;;;;;;;21.48;69.77;99910.73;1730027;82;25732;-73
2022/09/15 08:47:29;;;;;;;20.30;4.10;;;;;;;21.51;69.51;99904.81;1700598;83;25772;-72
2022/09/15 08:50:09;;;;;;;17.30;4.22;;;;;;;21.52;69.29;99903.20;1728862;82;26387;-74
2022/09/15 08:53:08;;;;;;;16.97;4.62;;;;;;;21.60;69.69;99902.09;1733577;81;25701;-74
2022/09/15 08:55:51;;;;;;;18.95;3.12;;;;;;;21.56;69.53;99909.87;1735393;81;27485;-74
2022/09/15 08:58:22;;;;;;;24.12;3.20;;;;;;;21.50;70.15;99906.69;1731130;81;25768;-72
2022/09/15 09:01:09;;;;;;;20.40;3.75;;;;;;;21.52;70.04;99906.45;1730990;81;25807;-72
2022/09/15 09:03:42;;;;;;;25.20;4.45;;;;;;;21.58;69.71;99911.06;1702129;82;25704;-72
2022/09/15 09:06:44;;;;;;;28.07;4.53;;;;;;;21.57;69.42;99912.09;1729007;81;25778;-74
2022/09/15 09:09:40;;;;;;;15.00;3.40;;;;;;;21.56;69.33;99911.78;1729495;81;27563;-74
2022/09/15 09:12:31;;;;;;;21.62;3.98;;;;;;;21.61;69.52;99916.05;1730515;81;25737;-74
2022/09/15 09:15:24;;;;;;;14.98;3.47;;;;;;;21.66;69.59;99924.94;1697625;83;26182;-73
2022/09/15 09:18:22;;;;;;;18.25;3.47;;;;;;;21.69;69.46;99927.23;1697741;83;26455;-74
2022/09/15 09:21:03;;;;;;;16.90;3.30;;;;;;;21.75;69.63;99923.56;1726785;81;25724;-74
2022/09/15 09:23:33;;;;;;;13.20;3.40;;;;;;;21.81;67.06;99927.28;1753086;81;27479;-73
2022/09/15 09:26:03;;;;;;;24.37;4.15;;;;;;;21.88;67.20;99922.54;1747467;81;25875;-71
2022/09/15 09:28:46;;;;;;;16.60;3.50;;;;;;;21.93;65.55;99915.00;1734307;81;25853;-74
2022/09/15 09:31:18;;;;;;;;;;;;;;;22.05;62.72;99921.36;1710677;82;25796;-74
2022/09/15 09:34:29;;;;;;;18.10;3.52;;;;;;;22.13;61.43;99914.73;1713668;82;26208;-71
2022/09/15 09:37:08;;;;;;;11.10;3.00;;;;;;;22.22;61.06;99915.21;1735513;81;27626;-73
2022/09/15 09:39:35;;;;;;;8.75;3.25;;;;;;;22.29;61.31;99900.88;1742738;81;25769;-72
2022/09/15 09:42:05;;;;;;;14.78;2.98;;;;;;;22.40;60.87;99900.64;1736494;81;25770;-72
2022/09/15 09:44:33;;;;;;;17.62;2.67;;;;;;;22.45;60.48;99905.72;1694220;82;25862;-73
2022/09/15 09:47:01;;;;;;;14.80;3.17;;;;;;;22.51;60.34;99910.25;1717260;82;25741;-71
2022/09/15 09:49:36;;;;;;;14.00;2.92;;;;;;;22.61;60.71;99905.53;1750362;81;27448;-72
2022/09/15 09:52:04;;;;;;;21.62;4.22;;;;;;;22.78;60.21;99898.82;1696511;82;25668;-72
2022/09/15 09:54:33;;;;;;;11.40;3.00;;;;;;;22.98;59.31;99907.22;1720624;82;25768;-72
2022/09/15 09:57:27;;;;;;;18.12;3.60;;;;;;;23.12;59.58;99913.29;1757773;81;25746;-72
2022/09/15 09:59:55;;;;;;;13.45;3.67;;;;;;;23.31;58.21;99911.80;1737434;81;26402;-72
2022/09/15 10:02:26;;;;;;;10.15;3.45;;;;;;;23.48;58.26;99901.73;1704539;82;27443;-72
2022/09/15 10:05:06;;;;;;;8.93;3.55;;;;;;;23.63;57.03;99897.06;1752892;81;25747;-72
2022/09/15 10:07:36;;;;;;;12.07;3.17;;;;;;;23.78;57.18;99895.71;1750329;81;25805;-72
2022/09/15 10:10:08;;;;;;;14.00;3.40;;;;;;;24.00;57.25;99891.76;1734353;81;26459;-73
2022/09/15 10:12:40;;;;;;;9.53;3.80;;;;;;;24.36;55.94;99887.70;1737731;81;25668;-72
2022/09/15 10:15:24;;;;;;;15.40;4.08;;;;;;;24.69;55.76;99889.34;1730817;81;27451;-72
2022/09/15 10:17:52;;;;;;;15.28;3.58;;;;;;;24.96;54.65;99881.75;1737566;81;25809;-74
2022/09/15 10:20:48;;;;;;;12.63;3.85;;;;;;;25.20;54.05;99876.86;1743636;81;25738;-73
2022/09/15 10:23:26;;;;;;;13.38;3.42;;;;;;;25.56;52.82;99881.98;1740402;81;26439;-72
2022/09/15 10:25:59;;;;;;;14.00;3.52;;;;;;;25.82;52.23;99878.97;1729854;81;25796;-74
2022/09/15 10:28:27;;;;;;;9.00;3.40;;;;;;;25.96;51.63;99873.02;1707974;82;27410;-74
2022/09/15 10:31:09;;;;;;;7.42;2.83;;;;;;;26.18;50.51;99871.60;1702288;82;25825;-72
2022/09/15 10:33:51;;;;;;;10.58;3.02;;;;;;;26.48;49.44;99871.05;1714019;82;25731;-74
2022/09/15 10:36:20;;;;;;;13.95;3.60;;;;;;;26.81;49.43;99863.56;1700375;82;25863;-73
2022/09/15 10:39:07;;;;;;;10.10;3.40;;;;;;;26.90;48.74;99865.25;1720703;82;25777;-74
2022/09/15 10:41:39;;;;;;;15.25;3.37;;;;;;;27.12;48.61;99865.09;1679055;82;27467;-74
2022/09/15 10:44:40;;;;;;;7.95;3.40;;;;;;;27.25;48.69;99868.47;1695354;83;25809;-74
2022/09/15 10:47:27;;;;;;;13.28;3.55;;;;;;;27.76;48.62;99870.59;1704424;83;26018;-72
2022/09/15 10:50:17;;;;;;;12.10;3.25;;;;;;;28.01;47.54;99876.73;1693575;82;25821;-72
2022/09/15 10:53:36;;;;;;;15.48;2.98;;;;;;;28.34;45.69;99882.00;1699645;82;26156;-74
2022/09/15 10:56:17;;;;;;;7.28;1.95;;;;;;;28.33;44.92;99876.22;1709247;82;29692;-75
2022/09/15 10:59:24;;;;;;;8.40;2.00;;;;;;;28.14;44.14;99873.16;1728283;82;25766;-70
2022/09/15 11:02:15;;;;;;;11.22;1.62;;;;;;;28.05;44.09;99864.00;1714328;82;25768;-69
2022/09/15 11:05:38;;;;;;;5.67;1.95;;;;;;;28.35;42.49;99866.53;1716463;81;25918;-73
2022/09/15 11:08:26;;;;;;;7.92;1.82;;;;;;;28.49;43.49;99853.51;1693239;83;25782;-72
2022/09/15 11:11:13;;;;;;;3.27;1.60;;;;;;;28.24;42.31;99846.33;1704355;81;27968;-71
2022/09/15 11:14:06;;;;;;;8.95;2.12;;;;;;;27.79;42.49;99855.68;1723332;83;25722;-72
2022/09/15 11:16:59;;;;;;;8.60;1.55;;;;;;;27.46;43.43;99860.58;1715839;82;26392;-72
2022/09/15 11:20:05;;;;;;;7.42;1.90;;;;;;;27.40;43.01;99848.37;1705538;82;25801;-73
2022/09/15 11:22:40;;;;;;;4.42;1.20;;;;;;;27.15;44.06;99866.51;1727445;82;25789;-73
2022/09/15 11:25:16;;;;;;;3.40;1.20;;;;;;;27.03;43.97;99872.22;1711865;82;27454;-72
2022/09/15 11:28:12;;;;;;;7.62;1.20;;;;;;;26.95;44.56;99864.45;1703990;82;25777;-73
2022/09/15 11:30:52;;;;;;;7.42;1.60;;;;;;;26.86;44.21;99876.56;1732474;81;25755;-71
2022/09/15 11:33:37;;;;;;;4.60;1.37;;;;;;;26.78;44.66;99863.27;1701793;83;26834;-71
2022/09/15 11:36:12;;;;;;;10.23;1.50;;;;;;;26.69;44.52;99862.36;1703616;82;25896;-71
2022/09/15 11:38:56;;;;;;;7.47;1.85;;;;;;;26.76;44.71;99851.63;1709847;82;28106;-70
2022/09/15 11:41:48;;;;;;;3.42;1.40;;;;;;;27.10;44.70;99852.12;1697436;83;25824;-71
2022/09/15 11:44:26;;;;;;;7.70;1.70;;;;;;;27.63;43.71;99858.14;1697152;84;25752;-72
2022/09/15 11:47:10;;;;;;;7.37;1.90;;;;;;;28.01;42.63;99857.38;1697531;82;25831;-71
2022/09/15 11:49:55;;;;;;;9.63;1.52;;;;;;;28.18;42.77;99860.45;1701275;83;25775;-73
2022/09/15 11:52:56;;;;;;;5.40;1.50;;;;;;;28.32;41.84;99859.34;1708113;82;28178;-71
2022/09/15 11:55:42;;;;;;;4.33;1.95;;;;;;;28.10;42.07;99884.78;1705714;82;26488;-72
2022/09/15 11:58:24;;;;;;;6.42;1.55;;;;;;;27.70;42.67;99871.70;1744891;81;25777;-72
2022/09/15 12:01:22;;;;;;;7.03;1.77;;;;;;;27.45;43.38;99880.16;1711895;81;25819;-72